PWSweather.com
Personal Weather Stations
Station Observations
KTXNEWBR92
New Braunfels, TX

New Braunfels, TX

Lat: 29.722, Lon: -98.17

Elevation: 850

Station Type:

High Low Average
Temperature 84.9°F29.4°C 60.4°F15.8°C 74.3°F23.5°C
Dew Point 70.9°F21.6°C 57.0°F13.9°C 66.3°F19.1°C
Winds 8.1 mph 13.0 kmh Calm Calm 2.0 mph SE3.2 kmh SE
Wind Gusts 12.3 mph19.8 kmh -- 4.0 mph6.4 kmh
Humidity 92% 57% 77%
Pressure 29.71 in1006.1 mb 29.43 in996.6 mb -
Precipitation 0.91 in23.1 mm - -
Hour Temp Dew Point Humidity Winds Wind Gusts Pressure Precip Precip Rate Daily Precip Total
12:04 AM 69.8°F21.0°C 60.1°F15.6°C 71% Calm Calm -- 29.72 in1006.4 mb 0.00 in0.0 mm 0.00 in0.0 mm 0.00 in0.0 mm
12:09 AM 69.8°F21.0°C 60.4°F15.8°C 72% 2.0 mph ENE3.2 kmh ENE 2.5 mph4.0 kmh 29.72 in1006.4 mb 0.00 in0.0 mm 0.00 in0.0 mm 0.00 in0.0 mm
12:14 AM 69.8°F21.0°C 60.4°F15.8°C 72% Calm Calm -- 29.72 in1006.4 mb 0.00 in0.0 mm 0.00 in0.0 mm 0.00 in0.0 mm
12:19 AM 69.6°F20.9°C 60.3°F15.7°C 72% 2.7 mph NE4.3 kmh NE 4.9 mph7.9 kmh 29.71 in1006.1 mb 0.00 in0.0 mm 0.00 in0.0 mm 0.00 in0.0 mm
12:24 AM 69.6°F20.9°C 60.3°F15.7°C 72% 4.3 mph ESE6.9 kmh ESE 7.4 mph11.9 kmh 29.70 in1005.8 mb 0.00 in0.0 mm 0.00 in0.0 mm 0.00 in0.0 mm
12:29 AM 69.6°F20.9°C 60.3°F15.7°C 72% 2.5 mph E4.0 kmh E 4.9 mph7.9 kmh 29.71 in1006.1 mb 0.00 in0.0 mm 0.00 in0.0 mm 0.00 in0.0 mm
12:34 AM 69.6°F20.9°C 60.3°F15.7°C 72% Calm Calm -- 29.71 in1006.1 mb 0.00 in0.0 mm 0.00 in0.0 mm 0.00 in0.0 mm
12:39 AM 69.6°F20.9°C 60.3°F15.7°C 72% 4.0 mph ESE6.4 kmh ESE 7.4 mph11.9 kmh 29.72 in1006.4 mb 0.00 in0.0 mm 0.00 in0.0 mm 0.00 in0.0 mm
12:44 AM 69.6°F20.9°C 60.3°F15.7°C 72% 0.2 mph E0.3 kmh E 2.5 mph4.0 kmh 29.72 in1006.4 mb 0.00 in0.0 mm 0.00 in0.0 mm 0.00 in0.0 mm
12:49 AM 69.6°F20.9°C 60.3°F15.7°C 72% 0.4 mph ESE0.6 kmh ESE 2.5 mph4.0 kmh 29.72 in1006.4 mb 0.00 in0.0 mm 0.00 in0.0 mm 0.00 in0.0 mm
12:54 AM 69.6°F20.9°C 60.3°F15.7°C 72% Calm Calm -- 29.71 in1006.1 mb 0.00 in0.0 mm 0.00 in0.0 mm 0.00 in0.0 mm
12:59 AM 69.6°F20.9°C 60.3°F15.7°C 72% 1.1 mph SSE1.8 kmh SSE 2.5 mph4.0 kmh 29.72 in1006.4 mb 0.00 in0.0 mm 0.00 in0.0 mm 0.00 in0.0 mm
01:04 AM 69.6°F20.9°C 60.3°F15.7°C 72% 2.0 mph ESE3.2 kmh ESE 2.5 mph4.0 kmh 29.71 in1006.1 mb 0.00 in0.0 mm 0.00 in0.0 mm 0.00 in0.0 mm
01:09 AM 69.6°F20.9°C 60.6°F15.9°C 73% 1.3 mph E2.1 kmh E 2.5 mph4.0 kmh 29.71 in1006.1 mb 0.00 in0.0 mm 0.00 in0.0 mm 0.00 in0.0 mm
01:14 AM 69.6°F20.9°C 60.6°F15.9°C 73% 4.5 mph E7.2 kmh E 7.4 mph11.9 kmh 29.70 in1005.8 mb 0.00 in0.0 mm 0.00 in0.0 mm 0.00 in0.0 mm
01:19 AM 69.6°F20.9°C 60.6°F15.9°C 73% 0.4 mph S0.6 kmh S 2.5 mph4.0 kmh 29.70 in1005.8 mb 0.00 in0.0 mm 0.00 in0.0 mm 0.00 in0.0 mm
01:24 AM 69.6°F20.9°C 60.6°F15.9°C 73% 1.8 mph E2.9 kmh E 2.5 mph4.0 kmh 29.70 in1005.8 mb 0.00 in0.0 mm 0.00 in0.0 mm 0.00 in0.0 mm
01:29 AM 69.4°F20.8°C 60.4°F15.8°C 73% 6.5 mph ESE10.5 kmh ESE 9.8 mph15.8 kmh 29.68 in1005.1 mb 0.00 in0.0 mm 0.00 in0.0 mm 0.00 in0.0 mm
01:34 AM 69.4°F20.8°C 60.8°F16.0°C 74% 1.1 mph E1.8 kmh E 2.5 mph4.0 kmh 29.69 in1005.4 mb 0.00 in0.0 mm 0.00 in0.0 mm 0.00 in0.0 mm
01:39 AM 69.4°F20.8°C 60.8°F16.0°C 74% 3.4 mph S5.5 kmh S 4.9 mph7.9 kmh 29.69 in1005.4 mb 0.00 in0.0 mm 0.00 in0.0 mm 0.00 in0.0 mm
01:44 AM 69.4°F20.8°C 60.8°F16.0°C 74% 0.4 mph ENE0.6 kmh ENE 2.5 mph4.0 kmh 29.69 in1005.4 mb 0.00 in0.0 mm 0.00 in0.0 mm 0.00 in0.0 mm
01:49 AM 69.4°F20.8°C 60.8°F16.0°C 74% 4.5 mph ESE7.2 kmh ESE 7.4 mph11.9 kmh 29.69 in1005.4 mb 0.00 in0.0 mm 0.00 in0.0 mm 0.00 in0.0 mm
01:54 AM 69.3°F20.7°C 61.0°F16.1°C 75% 6.0 mph E9.7 kmh E 12.3 mph19.8 kmh 29.68 in1005.1 mb 0.00 in0.0 mm 0.00 in0.0 mm 0.00 in0.0 mm
01:59 AM 69.3°F20.7°C 61.0°F16.1°C 75% Calm Calm -- 29.68 in1005.1 mb 0.00 in0.0 mm 0.00 in0.0 mm 0.00 in0.0 mm
02:04 AM 69.3°F20.7°C 61.0°F16.1°C 75% 2.7 mph NE4.3 kmh NE 4.9 mph7.9 kmh 29.68 in1005.1 mb 0.00 in0.0 mm 0.00 in0.0 mm 0.00 in0.0 mm
02:09 AM 69.3°F20.7°C 61.0°F16.1°C 75% 2.5 mph E4.0 kmh E 2.5 mph4.0 kmh 29.69 in1005.4 mb 0.00 in0.0 mm 0.00 in0.0 mm 0.00 in0.0 mm
02:14 AM 69.3°F20.7°C 61.0°F16.1°C 75% 0.2 mph ENE0.3 kmh ENE 2.5 mph4.0 kmh 29.68 in1005.1 mb 0.00 in0.0 mm 0.00 in0.0 mm 0.00 in0.0 mm
02:19 AM 69.1°F20.6°C 61.2°F16.2°C 76% 4.3 mph SE6.9 kmh SE 4.9 mph7.9 kmh 29.68 in1005.1 mb 0.00 in0.0 mm 0.00 in0.0 mm 0.00 in0.0 mm
02:24 AM 69.1°F20.6°C 61.2°F16.2°C 76% 1.8 mph SE2.9 kmh SE 2.5 mph4.0 kmh 29.68 in1005.1 mb 0.00 in0.0 mm 0.00 in0.0 mm 0.00 in0.0 mm
02:29 AM 69.1°F20.6°C 61.2°F16.2°C 76% 2.0 mph SE3.2 kmh SE 2.5 mph4.0 kmh 29.68 in1005.1 mb 0.00 in0.0 mm 0.00 in0.0 mm 0.00 in0.0 mm
02:34 AM 69.1°F20.6°C 61.2°F16.2°C 76% 1.3 mph S2.1 kmh S 2.5 mph4.0 kmh 29.68 in1005.1 mb 0.00 in0.0 mm 0.00 in0.0 mm 0.00 in0.0 mm
02:39 AM 69.1°F20.6°C 61.2°F16.2°C 76% 1.1 mph ESE1.8 kmh ESE 2.5 mph4.0 kmh 29.68 in1005.1 mb 0.00 in0.0 mm 0.00 in0.0 mm 0.00 in0.0 mm
02:44 AM 69.1°F20.6°C 61.2°F16.2°C 76% 0.4 mph E0.6 kmh E 2.5 mph4.0 kmh 29.68 in1005.1 mb 0.00 in0.0 mm 0.00 in0.0 mm 0.00 in0.0 mm
02:49 AM 69.1°F20.6°C 61.7°F16.5°C 77% Calm Calm -- 29.68 in1005.1 mb 0.00 in0.0 mm 0.00 in0.0 mm 0.00 in0.0 mm
02:54 AM 69.1°F20.6°C 61.7°F16.5°C 77% 2.7 mph E4.3 kmh E 4.9 mph7.9 kmh 29.68 in1005.1 mb 0.00 in0.0 mm 0.00 in0.0 mm 0.00 in0.0 mm
02:59 AM 69.1°F20.6°C 61.7°F16.5°C 77% 1.3 mph ENE2.1 kmh ENE 2.5 mph4.0 kmh 29.68 in1005.1 mb 0.00 in0.0 mm 0.00 in0.0 mm 0.00 in0.0 mm
03:04 AM 68.9°F20.5°C 61.5°F16.4°C 77% 2.9 mph SW4.7 kmh SW 4.9 mph7.9 kmh 29.68 in1005.1 mb 0.00 in0.0 mm 0.00 in0.0 mm 0.00 in0.0 mm
03:09 AM 68.9°F20.5°C 61.9°F16.6°C 78% Calm Calm -- 29.68 in1005.1 mb 0.00 in0.0 mm 0.00 in0.0 mm 0.00 in0.0 mm
03:14 AM 68.9°F20.5°C 61.9°F16.6°C 78% Calm Calm -- 29.68 in1005.1 mb 0.00 in0.0 mm 0.00 in0.0 mm 0.00 in0.0 mm
03:19 AM 68.9°F20.5°C 61.9°F16.6°C 78% Calm Calm -- 29.68 in1005.1 mb 0.00 in0.0 mm 0.00 in0.0 mm 0.00 in0.0 mm
03:24 AM 68.9°F20.5°C 61.9°F16.6°C 78% 1.8 mph SE2.9 kmh SE 2.5 mph4.0 kmh 29.68 in1005.1 mb 0.00 in0.0 mm 0.00 in0.0 mm 0.00 in0.0 mm
03:29 AM 68.9°F20.5°C 62.2°F16.8°C 79% 2.7 mph SSE4.3 kmh SSE 4.9 mph7.9 kmh 29.68 in1005.1 mb 0.00 in0.0 mm 0.00 in0.0 mm 0.00 in0.0 mm
03:34 AM 68.9°F20.5°C 62.2°F16.8°C 79% 2.7 mph S4.3 kmh S 4.9 mph7.9 kmh 29.67 in1004.7 mb 0.00 in0.0 mm 0.00 in0.0 mm 0.00 in0.0 mm
03:39 AM 68.9°F20.5°C 62.6°F17.0°C 80% 1.8 mph ESE2.9 kmh ESE 2.5 mph4.0 kmh 29.67 in1004.7 mb 0.00 in0.0 mm 0.00 in0.0 mm 0.00 in0.0 mm
03:44 AM 68.9°F20.5°C 62.6°F17.0°C 80% 4.3 mph S6.9 kmh S 7.4 mph11.9 kmh 29.67 in1004.7 mb 0.00 in0.0 mm 0.00 in0.0 mm 0.00 in0.0 mm
03:49 AM 68.7°F20.4°C 62.4°F16.9°C 80% 3.4 mph S5.5 kmh S 4.9 mph7.9 kmh 29.67 in1004.7 mb 0.00 in0.0 mm 0.00 in0.0 mm 0.00 in0.0 mm
03:54 AM 68.7°F20.4°C 62.4°F16.9°C 80% 1.3 mph E2.1 kmh E 2.5 mph4.0 kmh 29.67 in1004.7 mb 0.00 in0.0 mm 0.00 in0.0 mm 0.00 in0.0 mm
03:59 AM 68.7°F20.4°C 62.4°F16.9°C 80% 0.2 mph SE0.3 kmh SE 2.5 mph4.0 kmh 29.66 in1004.4 mb 0.00 in0.0 mm 0.00 in0.0 mm 0.00 in0.0 mm
04:04 AM 68.7°F20.4°C 62.4°F16.9°C 80% 1.3 mph E2.1 kmh E 2.5 mph4.0 kmh 29.66 in1004.4 mb 0.00 in0.0 mm 0.00 in0.0 mm 0.00 in0.0 mm
04:09 AM 68.7°F20.4°C 62.4°F16.9°C 80% 1.8 mph SE2.9 kmh SE 2.5 mph4.0 kmh 29.65 in1004.1 mb 0.00 in0.0 mm 0.00 in0.0 mm 0.00 in0.0 mm
04:14 AM 68.9°F20.5°C 62.6°F17.0°C 80% 1.3 mph ESE2.1 kmh ESE 2.5 mph4.0 kmh 29.65 in1004.1 mb 0.00 in0.0 mm 0.00 in0.0 mm 0.00 in0.0 mm
04:19 AM 68.9°F20.5°C 62.6°F17.0°C 80% 1.3 mph SSE2.1 kmh SSE 2.5 mph4.0 kmh 29.65 in1004.1 mb 0.00 in0.0 mm 0.00 in0.0 mm 0.00 in0.0 mm
04:24 AM 68.9°F20.5°C 62.6°F17.0°C 80% 0.2 mph E0.3 kmh E 2.5 mph4.0 kmh 29.65 in1004.1 mb 0.00 in0.0 mm 0.00 in0.0 mm 0.00 in0.0 mm
04:29 AM 68.9°F20.5°C 62.6°F17.0°C 80% Calm Calm -- 29.65 in1004.1 mb 0.00 in0.0 mm 0.00 in0.0 mm 0.00 in0.0 mm
04:34 AM 68.9°F20.5°C 62.6°F17.0°C 80% Calm Calm -- 29.65 in1004.1 mb 0.00 in0.0 mm 0.00 in0.0 mm 0.00 in0.0 mm
04:39 AM 68.9°F20.5°C 63.0°F17.2°C 81% 0.9 mph SE1.4 kmh SE 2.5 mph4.0 kmh 29.64 in1003.7 mb 0.00 in0.0 mm 0.00 in0.0 mm 0.00 in0.0 mm
04:44 AM 68.9°F20.5°C 63.1°F17.3°C 82% Calm Calm -- 29.64 in1003.7 mb 0.00 in0.0 mm 0.00 in0.0 mm 0.00 in0.0 mm
04:49 AM 68.9°F20.5°C 63.5°F17.5°C 83% 0.2 mph E0.3 kmh E 2.5 mph4.0 kmh 29.64 in1003.7 mb 0.00 in0.0 mm 0.00 in0.0 mm 0.00 in0.0 mm
04:54 AM 68.9°F20.5°C 63.9°F17.7°C 84% Calm Calm -- 29.64 in1003.7 mb 0.00 in0.0 mm 0.00 in0.0 mm 0.00 in0.0 mm
04:59 AM 68.9°F20.5°C 64.2°F17.9°C 85% 0.2 mph E0.3 kmh E 2.5 mph4.0 kmh 29.63 in1003.4 mb 0.00 in0.0 mm 0.00 in0.0 mm 0.00 in0.0 mm
05:04 AM 68.7°F20.4°C 64.8°F18.2°C 87% Calm Calm -- 29.63 in1003.4 mb 0.00 in0.0 mm 0.00 in0.0 mm 0.00 in0.0 mm
05:09 AM 68.7°F20.4°C 65.1°F18.4°C 88% 0.2 mph ESE0.3 kmh ESE 2.5 mph4.0 kmh 29.64 in1003.7 mb 0.00 in0.0 mm 0.00 in0.0 mm 0.00 in0.0 mm
05:14 AM 68.7°F20.4°C 65.3°F18.5°C 89% 0.2 mph SE0.3 kmh SE 2.5 mph4.0 kmh 29.63 in1003.4 mb 0.00 in0.0 mm 0.00 in0.0 mm 0.00 in0.0 mm
05:19 AM 68.7°F20.4°C 65.7°F18.7°C 90% 0.2 mph NNE0.3 kmh NNE 2.5 mph4.0 kmh 29.64 in1003.7 mb 0.00 in0.0 mm 0.00 in0.0 mm 0.00 in0.0 mm
05:24 AM 68.7°F20.4°C 66.0°F18.9°C 91% 2.9 mph S4.7 kmh S 4.9 mph7.9 kmh 29.63 in1003.4 mb 0.00 in0.0 mm 0.00 in0.0 mm 0.00 in0.0 mm
05:29 AM 68.7°F20.4°C 66.0°F18.9°C 91% 0.9 mph E1.4 kmh E 2.5 mph4.0 kmh 29.64 in1003.7 mb 0.00 in0.0 mm 0.00 in0.0 mm 0.00 in0.0 mm
05:34 AM 68.7°F20.4°C 66.4°F19.1°C 92% 1.8 mph S2.9 kmh S 2.5 mph4.0 kmh 29.64 in1003.7 mb 0.00 in0.0 mm 0.00 in0.0 mm 0.00 in0.0 mm
05:39 AM 68.7°F20.4°C 66.4°F19.1°C 92% 0.9 mph E1.4 kmh E 2.5 mph4.0 kmh 29.63 in1003.4 mb 0.00 in0.0 mm 0.00 in0.0 mm 0.00 in0.0 mm
05:44 AM 68.7°F20.4°C 66.4°F19.1°C 92% 4.5 mph ESE7.2 kmh ESE 4.9 mph7.9 kmh 29.63 in1003.4 mb 0.00 in0.0 mm 0.00 in0.0 mm 0.00 in0.0 mm
05:49 AM 68.7°F20.4°C 66.4°F19.1°C 92% Calm Calm -- 29.63 in1003.4 mb 0.00 in0.0 mm 0.00 in0.0 mm 0.00 in0.0 mm
05:54 AM 68.9°F20.5°C 66.6°F19.2°C 92% 2.9 mph SSW4.7 kmh SSW 4.9 mph7.9 kmh 29.64 in1003.7 mb 0.00 in0.0 mm 0.00 in0.0 mm 0.00 in0.0 mm
05:59 AM 68.9°F20.5°C 66.6°F19.2°C 92% Calm Calm -- 29.63 in1003.4 mb 0.00 in0.0 mm 0.00 in0.0 mm 0.00 in0.0 mm
06:04 AM 68.9°F20.5°C 66.6°F19.2°C 92% Calm Calm -- 29.63 in1003.4 mb 0.00 in0.0 mm 0.00 in0.0 mm 0.00 in0.0 mm
06:09 AM 68.9°F20.5°C 66.6°F19.2°C 92% 2.0 mph E3.2 kmh E 2.5 mph4.0 kmh 29.63 in1003.4 mb 0.00 in0.0 mm 0.00 in0.0 mm 0.00 in0.0 mm
06:14 AM 69.1°F20.6°C 66.7°F19.3°C 92% 0.2 mph ESE0.3 kmh ESE 2.5 mph4.0 kmh 29.63 in1003.4 mb 0.00 in0.0 mm 0.00 in0.0 mm 0.00 in0.0 mm
06:19 AM 69.1°F20.6°C 66.7°F19.3°C 92% 0.4 mph SE0.6 kmh SE 2.5 mph4.0 kmh 29.63 in1003.4 mb 0.00 in0.0 mm 0.00 in0.0 mm 0.00 in0.0 mm
06:24 AM 69.1°F20.6°C 66.7°F19.3°C 92% 4.0 mph SSE6.4 kmh SSE 7.4 mph11.9 kmh 29.63 in1003.4 mb 0.00 in0.0 mm 0.00 in0.0 mm 0.00 in0.0 mm
06:29 AM 69.1°F20.6°C 66.7°F19.3°C 92% 2.5 mph SSE4.0 kmh SSE 4.9 mph7.9 kmh 29.63 in1003.4 mb 0.00 in0.0 mm 0.00 in0.0 mm 0.00 in0.0 mm
06:34 AM 69.1°F20.6°C 66.7°F19.3°C 92% Calm Calm -- 29.63 in1003.4 mb 0.00 in0.0 mm 0.00 in0.0 mm 0.00 in0.0 mm
06:39 AM 69.3°F20.7°C 66.9°F19.4°C 92% 2.7 mph SW4.3 kmh SW 4.9 mph7.9 kmh 29.64 in1003.7 mb 0.00 in0.0 mm 0.00 in0.0 mm 0.00 in0.0 mm
06:44 AM 69.3°F20.7°C 66.9°F19.4°C 92% 1.8 mph SW2.9 kmh SW 2.5 mph4.0 kmh 29.63 in1003.4 mb 0.00 in0.0 mm 0.00 in0.0 mm 0.00 in0.0 mm
06:49 AM 69.3°F20.7°C 66.9°F19.4°C 92% Calm Calm -- 29.64 in1003.7 mb 0.00 in0.0 mm 0.00 in0.0 mm 0.00 in0.0 mm
06:54 AM 69.3°F20.7°C 66.9°F19.4°C 92% 3.4 mph S5.5 kmh S 4.9 mph7.9 kmh 29.64 in1003.7 mb 0.00 in0.0 mm 0.00 in0.0 mm 0.00 in0.0 mm
06:59 AM 69.3°F20.7°C 66.9°F19.4°C 92% Calm Calm -- 29.64 in1003.7 mb 0.00 in0.0 mm 0.00 in0.0 mm 0.00 in0.0 mm
07:04 AM 69.3°F20.7°C 66.9°F19.4°C 92% 0.9 mph E1.4 kmh E 2.5 mph4.0 kmh 29.64 in1003.7 mb 0.00 in0.0 mm 0.00 in0.0 mm 0.00 in0.0 mm
07:09 AM 69.3°F20.7°C 66.9°F19.4°C 92% 0.9 mph ESE1.4 kmh ESE 2.5 mph4.0 kmh 29.64 in1003.7 mb 0.00 in0.0 mm 0.00 in0.0 mm 0.00 in0.0 mm
07:14 AM 69.3°F20.7°C 66.9°F19.4°C 92% Calm Calm -- 29.64 in1003.7 mb 0.00 in0.0 mm 0.00 in0.0 mm 0.00 in0.0 mm
07:19 AM 69.3°F20.7°C 66.9°F19.4°C 92% Calm Calm -- 29.64 in1003.7 mb 0.00 in0.0 mm 0.00 in0.0 mm 0.00 in0.0 mm
07:24 AM 69.4°F20.8°C 67.1°F19.5°C 92% 0.2 mph E0.3 kmh E 2.5 mph4.0 kmh 29.64 in1003.7 mb 0.00 in0.0 mm 0.00 in0.0 mm 0.00 in0.0 mm
07:29 AM 69.4°F20.8°C 67.1°F19.5°C 92% Calm Calm -- 29.64 in1003.7 mb 0.00 in0.0 mm 0.00 in0.0 mm 0.00 in0.0 mm
07:34 AM 69.4°F20.8°C 67.1°F19.5°C 92% Calm Calm -- 29.64 in1003.7 mb 0.00 in0.0 mm 0.00 in0.0 mm 0.00 in0.0 mm
07:39 AM 69.4°F20.8°C 67.1°F19.5°C 92% 0.4 mph SE0.6 kmh SE 2.5 mph4.0 kmh 29.64 in1003.7 mb 0.00 in0.0 mm 0.00 in0.0 mm 0.00 in0.0 mm
07:44 AM 69.4°F20.8°C 67.1°F19.5°C 92% 0.9 mph E1.4 kmh E 2.5 mph4.0 kmh 29.63 in1003.4 mb 0.00 in0.0 mm 0.00 in0.0 mm 0.00 in0.0 mm
07:49 AM 69.6°F20.9°C 67.3°F19.6°C 92% Calm Calm -- 29.63 in1003.4 mb 0.00 in0.0 mm 0.00 in0.0 mm 0.00 in0.0 mm
07:54 AM 69.6°F20.9°C 67.3°F19.6°C 92% 3.6 mph E5.8 kmh E 4.9 mph7.9 kmh 29.64 in1003.7 mb 0.00 in0.0 mm 0.00 in0.0 mm 0.00 in0.0 mm
07:59 AM 69.6°F20.9°C 67.3°F19.6°C 92% 2.5 mph ENE4.0 kmh ENE 4.9 mph7.9 kmh 29.62 in1003.0 mb 0.00 in0.0 mm 0.00 in0.0 mm 0.00 in0.0 mm
08:04 AM 69.8°F21.0°C 67.5°F19.7°C 92% 1.8 mph SE2.9 kmh SE 2.5 mph4.0 kmh 29.61 in1002.7 mb 0.00 in0.0 mm 0.00 in0.0 mm 0.00 in0.0 mm
08:09 AM 69.8°F21.0°C 67.5°F19.7°C 92% 0.2 mph ESE0.3 kmh ESE 2.5 mph4.0 kmh 29.61 in1002.7 mb 0.00 in0.0 mm 0.00 in0.0 mm 0.00 in0.0 mm
08:14 AM 70.0°F21.1°C 67.6°F19.8°C 92% 0.9 mph ESE1.4 kmh ESE 2.5 mph4.0 kmh 29.60 in1002.4 mb 0.00 in0.0 mm 0.00 in0.0 mm 0.00 in0.0 mm
08:19 AM 70.0°F21.1°C 67.6°F19.8°C 92% Calm Calm -- 29.60 in1002.4 mb 0.00 in0.0 mm 0.00 in0.0 mm 0.00 in0.0 mm
08:24 AM 70.2°F21.2°C 67.8°F19.9°C 92% 2.0 mph NE3.2 kmh NE 4.9 mph7.9 kmh 29.60 in1002.4 mb 0.00 in0.0 mm 0.00 in0.0 mm 0.00 in0.0 mm
08:29 AM 70.2°F21.2°C 67.8°F19.9°C 92% 2.5 mph SSW4.0 kmh SSW 4.9 mph7.9 kmh 29.60 in1002.4 mb 0.00 in0.0 mm 0.00 in0.0 mm 0.00 in0.0 mm
08:34 AM 70.2°F21.2°C 67.8°F19.9°C 92% 4.5 mph SW7.2 kmh SW 4.9 mph7.9 kmh 29.59 in1002.0 mb 0.00 in0.0 mm 0.00 in0.0 mm 0.00 in0.0 mm
08:39 AM 70.3°F21.3°C 68.0°F20.0°C 92% 0.9 mph ESE1.4 kmh ESE 2.5 mph4.0 kmh 29.58 in1001.7 mb 0.00 in0.0 mm 0.00 in0.0 mm 0.00 in0.0 mm
08:44 AM 70.3°F21.3°C 68.0°F20.0°C 92% 0.4 mph E0.6 kmh E 2.5 mph4.0 kmh 29.57 in1001.4 mb 0.00 in0.0 mm 0.00 in0.0 mm 0.00 in0.0 mm
08:49 AM 70.5°F21.4°C 68.2°F20.1°C 92% 4.3 mph ESE6.9 kmh ESE 4.9 mph7.9 kmh 29.57 in1001.4 mb 0.00 in0.0 mm 0.00 in0.0 mm 0.00 in0.0 mm
08:54 AM 70.5°F21.4°C 68.2°F20.1°C 92% 4.9 mph ESE7.9 kmh ESE 7.4 mph11.9 kmh 29.56 in1001.0 mb 0.00 in0.0 mm 0.00 in0.0 mm 0.00 in0.0 mm
08:59 AM 70.7°F21.5°C 68.0°F20.0°C 91% 4.0 mph SE6.4 kmh SE 7.4 mph11.9 kmh 29.55 in1000.7 mb 0.00 in0.0 mm 0.00 in0.0 mm 0.00 in0.0 mm
09:04 AM 70.9°F21.6°C 67.8°F19.9°C 90% 2.5 mph E4.0 kmh E 4.9 mph7.9 kmh 29.56 in1001.0 mb 0.00 in0.0 mm 0.00 in0.0 mm 0.00 in0.0 mm
09:09 AM 71.1°F21.7°C 67.6°F19.8°C 89% 2.9 mph S4.7 kmh S 4.9 mph7.9 kmh 29.59 in1002.0 mb 0.00 in0.0 mm 0.00 in0.0 mm 0.00 in0.0 mm
09:14 AM 71.2°F21.8°C 67.3°F19.6°C 87% 1.1 mph SE1.8 kmh SE 2.5 mph4.0 kmh 29.59 in1002.0 mb 0.00 in0.0 mm 0.00 in0.0 mm 0.00 in0.0 mm
09:19 AM 71.4°F21.9°C 67.1°F19.5°C 86% 2.7 mph E4.3 kmh E 4.9 mph7.9 kmh 29.60 in1002.4 mb 0.00 in0.0 mm 0.00 in0.0 mm 0.00 in0.0 mm
09:24 AM 71.6°F22.0°C 67.3°F19.6°C 86% 4.0 mph SE6.4 kmh SE 7.4 mph11.9 kmh 29.60 in1002.4 mb 0.00 in0.0 mm 0.00 in0.0 mm 0.00 in0.0 mm
09:29 AM 71.8°F22.1°C 67.1°F19.5°C 85% 0.2 mph E0.3 kmh E 2.5 mph4.0 kmh 29.61 in1002.7 mb 0.00 in0.0 mm 0.00 in0.0 mm 0.00 in0.0 mm
09:34 AM 72.0°F22.2°C 67.3°F19.6°C 85% 1.8 mph SSW2.9 kmh SSW 2.5 mph4.0 kmh 29.62 in1003.0 mb 0.00 in0.0 mm 0.00 in0.0 mm 0.00 in0.0 mm
09:39 AM 72.0°F22.2°C 67.3°F19.6°C 85% 2.0 mph E3.2 kmh E 4.9 mph7.9 kmh 29.60 in1002.4 mb 0.00 in0.0 mm 0.00 in0.0 mm 0.00 in0.0 mm
09:44 AM 72.1°F22.3°C 67.1°F19.5°C 84% 2.5 mph S4.0 kmh S 2.5 mph4.0 kmh 29.62 in1003.0 mb 0.00 in0.0 mm 0.00 in0.0 mm 0.00 in0.0 mm
09:49 AM 72.1°F22.3°C 66.7°F19.3°C 83% Calm Calm -- 29.61 in1002.7 mb 0.00 in0.0 mm 0.00 in0.0 mm 0.00 in0.0 mm
09:54 AM 72.3°F22.4°C 66.6°F19.2°C 82% 3.4 mph ESE5.5 kmh ESE 4.9 mph7.9 kmh 29.62 in1003.0 mb 0.00 in0.0 mm 0.00 in0.0 mm 0.00 in0.0 mm
09:59 AM 72.5°F22.5°C 66.4°F19.1°C 81% Calm Calm -- 29.61 in1002.7 mb 0.00 in0.0 mm 0.00 in0.0 mm 0.00 in0.0 mm
10:04 AM 72.5°F22.5°C 66.0°F18.9°C 80% 2.9 mph E4.7 kmh E 4.9 mph7.9 kmh 29.62 in1003.0 mb 0.00 in0.0 mm 0.00 in0.0 mm 0.00 in0.0 mm
10:09 AM 72.7°F22.6°C 66.2°F19.0°C 80% 3.4 mph SW5.5 kmh SW 4.9 mph7.9 kmh 29.62 in1003.0 mb 0.00 in0.0 mm 0.00 in0.0 mm 0.00 in0.0 mm
10:14 AM 72.9°F22.7°C 66.4°F19.1°C 80% 1.8 mph SW2.9 kmh SW 2.5 mph4.0 kmh 29.63 in1003.4 mb 0.00 in0.0 mm 0.00 in0.0 mm 0.00 in0.0 mm
10:19 AM 73.0°F22.8°C 66.6°F19.2°C 80% 2.9 mph S4.7 kmh S 7.4 mph11.9 kmh 29.62 in1003.0 mb 0.00 in0.0 mm 0.00 in0.0 mm 0.00 in0.0 mm
10:24 AM 73.0°F22.8°C 66.2°F19.0°C 79% Calm Calm -- 29.63 in1003.4 mb 0.00 in0.0 mm 0.00 in0.0 mm 0.00 in0.0 mm
10:29 AM 73.2°F22.9°C 66.0°F18.9°C 78% 1.3 mph WSW2.1 kmh WSW 2.5 mph4.0 kmh 29.63 in1003.4 mb 0.00 in0.0 mm 0.00 in0.0 mm 0.00 in0.0 mm
10:34 AM 73.6°F23.1°C 66.0°F18.9°C 77% Calm Calm -- 29.63 in1003.4 mb 0.00 in0.0 mm 0.00 in0.0 mm 0.00 in0.0 mm
10:39 AM 73.8°F23.2°C 66.2°F19.0°C 77% 0.2 mph NNE0.3 kmh NNE 2.5 mph4.0 kmh 29.63 in1003.4 mb 0.00 in0.0 mm 0.00 in0.0 mm 0.00 in0.0 mm
10:44 AM 74.1°F23.4°C 66.2°F19.0°C 76% 0.4 mph E0.6 kmh E 2.5 mph4.0 kmh 29.63 in1003.4 mb 0.00 in0.0 mm 0.00 in0.0 mm 0.00 in0.0 mm
10:49 AM 74.5°F23.6°C 66.4°F19.1°C 76% 1.1 mph SSW1.8 kmh SSW 2.5 mph4.0 kmh 29.64 in1003.7 mb 0.00 in0.0 mm 0.00 in0.0 mm 0.00 in0.0 mm
10:54 AM 74.8°F23.8°C 66.7°F19.3°C 76% 1.8 mph SE2.9 kmh SE 2.5 mph4.0 kmh 29.63 in1003.4 mb 0.00 in0.0 mm 0.00 in0.0 mm 0.00 in0.0 mm
10:59 AM 74.8°F23.8°C 67.3°F19.6°C 77% 1.8 mph E2.9 kmh E 4.9 mph7.9 kmh 29.63 in1003.4 mb 0.00 in0.0 mm 0.00 in0.0 mm 0.00 in0.0 mm
11:04 AM 75.0°F23.9°C 67.3°F19.6°C 77% 1.8 mph SSW2.9 kmh SSW 2.5 mph4.0 kmh 29.64 in1003.7 mb 0.00 in0.0 mm 0.00 in0.0 mm 0.00 in0.0 mm
11:09 AM 74.8°F23.8°C 67.3°F19.6°C 77% 1.8 mph SSW2.9 kmh SSW 2.5 mph4.0 kmh 29.64 in1003.7 mb 0.00 in0.0 mm 0.00 in0.0 mm 0.00 in0.0 mm
11:14 AM 74.7°F23.7°C 67.5°F19.7°C 78% 2.5 mph W4.0 kmh W 4.9 mph7.9 kmh 29.64 in1003.7 mb 0.00 in0.0 mm 0.00 in0.0 mm 0.00 in0.0 mm
11:19 AM 74.5°F23.6°C 67.3°F19.6°C 78% 2.9 mph SE4.7 kmh SE 4.9 mph7.9 kmh 29.64 in1003.7 mb 0.00 in0.0 mm 0.00 in0.0 mm 0.00 in0.0 mm
11:24 AM 74.5°F23.6°C 67.3°F19.6°C 78% 4.0 mph S6.4 kmh S 4.9 mph7.9 kmh 29.64 in1003.7 mb 0.00 in0.0 mm 0.00 in0.0 mm 0.00 in0.0 mm
11:29 AM 74.5°F23.6°C 66.9°F19.4°C 77% 1.8 mph SE2.9 kmh SE 4.9 mph7.9 kmh 29.64 in1003.7 mb 0.00 in0.0 mm 0.00 in0.0 mm 0.00 in0.0 mm
11:34 AM 74.7°F23.7°C 66.6°F19.2°C 76% 0.2 mph S0.3 kmh S 2.5 mph4.0 kmh 29.64 in1003.7 mb 0.00 in0.0 mm 0.00 in0.0 mm 0.00 in0.0 mm
11:39 AM 75.0°F23.9°C 66.2°F19.0°C 74% 2.7 mph S4.3 kmh S 4.9 mph7.9 kmh 29.64 in1003.7 mb 0.00 in0.0 mm 0.00 in0.0 mm 0.00 in0.0 mm
11:44 AM 75.6°F24.2°C 66.0°F18.9°C 72% 5.8 mph SSE9.3 kmh SSE 7.4 mph11.9 kmh 29.64 in1003.7 mb 0.00 in0.0 mm 0.00 in0.0 mm 0.00 in0.0 mm
11:49 AM 76.3°F24.6°C 66.6°F19.2°C 72% 1.8 mph SW2.9 kmh SW 2.5 mph4.0 kmh 29.63 in1003.4 mb 0.00 in0.0 mm 0.00 in0.0 mm 0.00 in0.0 mm
11:54 AM 76.8°F24.9°C 67.1°F19.5°C 72% Calm Calm -- 29.63 in1003.4 mb 0.00 in0.0 mm 0.00 in0.0 mm 0.00 in0.0 mm
11:59 AM 77.4°F25.2°C 67.6°F19.8°C 72% 6.7 mph SW10.8 kmh SW 9.8 mph15.8 kmh 29.63 in1003.4 mb 0.00 in0.0 mm 0.00 in0.0 mm 0.00 in0.0 mm
12:04 PM 77.7°F25.4°C 67.6°F19.8°C 71% 4.5 mph SE7.2 kmh SE 7.4 mph11.9 kmh 29.62 in1003.0 mb 0.00 in0.0 mm 0.00 in0.0 mm 0.00 in0.0 mm
12:09 PM 77.9°F25.5°C 67.8°F19.9°C 71% 1.3 mph ESE2.1 kmh ESE 2.5 mph4.0 kmh 29.62 in1003.0 mb 0.00 in0.0 mm 0.00 in0.0 mm 0.00 in0.0 mm
12:14 PM 78.1°F25.6°C 67.6°F19.8°C 70% 5.1 mph S8.2 kmh S 7.4 mph11.9 kmh 29.62 in1003.0 mb 0.00 in0.0 mm 0.00 in0.0 mm 0.00 in0.0 mm
12:19 PM 78.1°F25.6°C 68.0°F20.0°C 71% 1.8 mph ESE2.9 kmh ESE 2.5 mph4.0 kmh 29.62 in1003.0 mb 0.00 in0.0 mm 0.00 in0.0 mm 0.00 in0.0 mm
12:24 PM 77.9°F25.5°C 67.5°F19.7°C 70% 2.7 mph ENE4.3 kmh ENE 4.9 mph7.9 kmh 29.62 in1003.0 mb 0.00 in0.0 mm 0.00 in0.0 mm 0.00 in0.0 mm
12:29 PM 77.9°F25.5°C 67.5°F19.7°C 70% 8.1 mph SW13.0 kmh SW 9.8 mph15.8 kmh 29.61 in1002.7 mb 0.00 in0.0 mm 0.00 in0.0 mm 0.00 in0.0 mm
12:34 PM 78.1°F25.6°C 67.6°F19.8°C 70% 1.8 mph E2.9 kmh E 2.5 mph4.0 kmh 29.61 in1002.7 mb 0.00 in0.0 mm 0.00 in0.0 mm 0.00 in0.0 mm
12:39 PM 78.4°F25.8°C 66.6°F19.2°C 67% 2.9 mph SE4.7 kmh SE 4.9 mph7.9 kmh 29.61 in1002.7 mb 0.00 in0.0 mm 0.00 in0.0 mm 0.00 in0.0 mm
12:44 PM 79.2°F26.2°C 66.9°F19.4°C 66% 5.6 mph SW9.0 kmh SW 7.4 mph11.9 kmh 29.60 in1002.4 mb 0.00 in0.0 mm 0.00 in0.0 mm 0.00 in0.0 mm
12:49 PM 79.7°F26.5°C 66.9°F19.4°C 65% 4.9 mph E7.9 kmh E 7.4 mph11.9 kmh 29.60 in1002.4 mb 0.00 in0.0 mm 0.00 in0.0 mm 0.00 in0.0 mm
12:54 PM 80.2°F26.8°C 67.1°F19.5°C 64% 6.5 mph SE10.5 kmh SE 7.4 mph11.9 kmh 29.60 in1002.4 mb 0.00 in0.0 mm 0.00 in0.0 mm 0.00 in0.0 mm
12:59 PM 81.0°F27.2°C 67.6°F19.8°C 64% 1.8 mph E2.9 kmh E 2.5 mph4.0 kmh 29.60 in1002.4 mb 0.00 in0.0 mm 0.00 in0.0 mm 0.00 in0.0 mm
01:04 PM 81.5°F27.5°C 68.2°F20.1°C 64% 1.1 mph SE1.8 kmh SE 2.5 mph4.0 kmh 29.60 in1002.4 mb 0.00 in0.0 mm 0.00 in0.0 mm 0.00 in0.0 mm
01:09 PM 81.7°F27.6°C 68.4°F20.2°C 64% 5.8 mph S9.3 kmh S 7.4 mph11.9 kmh 29.59 in1002.0 mb 0.00 in0.0 mm 0.00 in0.0 mm 0.00 in0.0 mm
01:14 PM 81.5°F27.5°C 68.2°F20.1°C 64% 2.9 mph W4.7 kmh W 4.9 mph7.9 kmh 29.59 in1002.0 mb 0.00 in0.0 mm 0.00 in0.0 mm 0.00 in0.0 mm
01:19 PM 81.5°F27.5°C 68.7°F20.4°C 65% 5.8 mph WSW9.3 kmh WSW 7.4 mph11.9 kmh 29.59 in1002.0 mb 0.00 in0.0 mm 0.00 in0.0 mm 0.00 in0.0 mm
01:24 PM 81.3°F27.4°C 68.9°F20.5°C 66% 3.6 mph ESE5.8 kmh ESE 4.9 mph7.9 kmh 29.58 in1001.7 mb 0.00 in0.0 mm 0.00 in0.0 mm 0.00 in0.0 mm
01:29 PM 81.1°F27.3°C 68.7°F20.4°C 66% 4.9 mph SSE7.9 kmh SSE 7.4 mph11.9 kmh 29.58 in1001.7 mb 0.00 in0.0 mm 0.00 in0.0 mm 0.00 in0.0 mm
01:34 PM 81.1°F27.3°C 68.4°F20.2°C 65% 4.3 mph SW6.9 kmh SW 7.4 mph11.9 kmh 29.58 in1001.7 mb 0.00 in0.0 mm 0.00 in0.0 mm 0.00 in0.0 mm
01:39 PM 81.1°F27.3°C 67.5°F19.7°C 63% 2.7 mph SE4.3 kmh SE 4.9 mph7.9 kmh 29.58 in1001.7 mb 0.00 in0.0 mm 0.00 in0.0 mm 0.00 in0.0 mm
01:44 PM 81.3°F27.4°C 68.9°F20.5°C 66% Calm Calm -- 29.57 in1001.4 mb 0.00 in0.0 mm 0.00 in0.0 mm 0.00 in0.0 mm
01:49 PM 81.5°F27.5°C 68.7°F20.4°C 65% 2.7 mph SE4.3 kmh SE 4.9 mph7.9 kmh 29.57 in1001.4 mb 0.00 in0.0 mm 0.00 in0.0 mm 0.00 in0.0 mm
01:54 PM 81.7°F27.6°C 68.9°F20.5°C 65% 2.9 mph SSW4.7 kmh SSW 4.9 mph7.9 kmh 29.57 in1001.4 mb 0.00 in0.0 mm 0.00 in0.0 mm 0.00 in0.0 mm
01:59 PM 81.9°F27.7°C 68.0°F20.0°C 63% 3.4 mph S5.5 kmh S 4.9 mph7.9 kmh 29.56 in1001.0 mb 0.00 in0.0 mm 0.00 in0.0 mm 0.00 in0.0 mm
02:04 PM 82.2°F27.9°C 68.9°F20.5°C 64% 0.9 mph SSE1.4 kmh SSE 2.5 mph4.0 kmh 29.55 in1000.7 mb 0.00 in0.0 mm 0.00 in0.0 mm 0.00 in0.0 mm
02:09 PM 82.4°F28.0°C 68.5°F20.3°C 63% 2.9 mph WSW4.7 kmh WSW 4.9 mph7.9 kmh 29.55 in1000.7 mb 0.00 in0.0 mm 0.00 in0.0 mm 0.00 in0.0 mm
02:14 PM 82.6°F28.1°C 67.8°F19.9°C 61% 7.6 mph S12.2 kmh S 9.8 mph15.8 kmh 29.55 in1000.7 mb 0.00 in0.0 mm 0.00 in0.0 mm 0.00 in0.0 mm
02:19 PM 82.9°F28.3°C 68.2°F20.1°C 61% 1.8 mph ESE2.9 kmh ESE 2.5 mph4.0 kmh 29.55 in1000.7 mb 0.00 in0.0 mm 0.00 in0.0 mm 0.00 in0.0 mm
02:24 PM 82.8°F28.2°C 68.9°F20.5°C 63% 3.4 mph ESE5.5 kmh ESE 4.9 mph7.9 kmh 29.54 in1000.3 mb 0.00 in0.0 mm 0.00 in0.0 mm 0.00 in0.0 mm
02:29 PM 82.8°F28.2°C 68.5°F20.3°C 62% 3.6 mph NNW5.8 kmh NNW 4.9 mph7.9 kmh 29.54 in1000.3 mb 0.00 in0.0 mm 0.00 in0.0 mm 0.00 in0.0 mm
02:34 PM 83.1°F28.4°C 68.7°F20.4°C 62% 2.0 mph E3.2 kmh E 2.5 mph4.0 kmh 29.54 in1000.3 mb 0.00 in0.0 mm 0.00 in0.0 mm 0.00 in0.0 mm
02:39 PM 83.3°F28.5°C 68.0°F20.0°C 60% 1.3 mph SE2.1 kmh SE 4.9 mph7.9 kmh 29.54 in1000.3 mb 0.00 in0.0 mm 0.00 in0.0 mm 0.00 in0.0 mm
02:44 PM 83.7°F28.7°C 68.9°F20.5°C 61% 0.9 mph ENE1.4 kmh ENE 2.5 mph4.0 kmh 29.54 in1000.3 mb 0.00 in0.0 mm 0.00 in0.0 mm 0.00 in0.0 mm
02:49 PM 84.0°F28.9°C 67.6°F19.8°C 58% 6.0 mph SSE9.7 kmh SSE 7.4 mph11.9 kmh 29.54 in1000.3 mb 0.00 in0.0 mm 0.00 in0.0 mm 0.00 in0.0 mm
02:54 PM 84.2°F29.0°C 68.9°F20.5°C 60% 0.4 mph SE0.6 kmh SE 2.5 mph4.0 kmh 29.53 in1000.0 mb 0.00 in0.0 mm 0.00 in0.0 mm 0.00 in0.0 mm
02:59 PM 84.4°F29.1°C 69.4°F20.8°C 61% 2.7 mph SE4.3 kmh SE 4.9 mph7.9 kmh 29.53 in1000.0 mb 0.00 in0.0 mm 0.00 in0.0 mm 0.00 in0.0 mm
03:04 PM 84.6°F29.2°C 67.6°F19.8°C 57% 2.0 mph ESE3.2 kmh ESE 4.9 mph7.9 kmh 29.53 in1000.0 mb 0.00 in0.0 mm 0.00 in0.0 mm 0.00 in0.0 mm
03:09 PM 84.7°F29.3°C 69.8°F21.0°C 61% 2.7 mph ENE4.3 kmh ENE 4.9 mph7.9 kmh 29.53 in1000.0 mb 0.00 in0.0 mm 0.00 in0.0 mm 0.00 in0.0 mm
03:14 PM 84.9°F29.4°C 69.1°F20.6°C 59% 4.5 mph SW7.2 kmh SW 7.4 mph11.9 kmh 29.53 in1000.0 mb 0.00 in0.0 mm 0.00 in0.0 mm 0.00 in0.0 mm
03:19 PM 84.9°F29.4°C 69.1°F20.6°C 59% 2.9 mph S4.7 kmh S 4.9 mph7.9 kmh 29.53 in1000.0 mb 0.00 in0.0 mm 0.00 in0.0 mm 0.00 in0.0 mm
03:24 PM 84.7°F29.3°C 70.9°F21.6°C 63% 2.5 mph N4.0 kmh N 4.9 mph7.9 kmh 29.53 in1000.0 mb 0.00 in0.0 mm 0.00 in0.0 mm 0.00 in0.0 mm
03:29 PM 84.4°F29.1°C 69.4°F20.8°C 61% 2.5 mph W4.0 kmh W 4.9 mph7.9 kmh 29.52 in999.7 mb 0.00 in0.0 mm 0.00 in0.0 mm 0.00 in0.0 mm
03:34 PM 84.4°F29.1°C 69.4°F20.8°C 61% 5.6 mph ESE9.0 kmh ESE 7.4 mph11.9 kmh 29.52 in999.7 mb 0.00 in0.0 mm 0.00 in0.0 mm 0.00 in0.0 mm
03:39 PM 84.0°F28.9°C 69.3°F20.7°C 61% 3.6 mph SSE5.8 kmh SSE 7.4 mph11.9 kmh 29.52 in999.7 mb 0.00 in0.0 mm 0.00 in0.0 mm 0.00 in0.0 mm
03:44 PM 83.8°F28.8°C 68.0°F20.0°C 59% 4.5 mph ESE7.2 kmh ESE 4.9 mph7.9 kmh 29.51 in999.3 mb 0.00 in0.0 mm 0.00 in0.0 mm 0.00 in0.0 mm
03:49 PM 83.7°F28.7°C 68.9°F20.5°C 61% 3.6 mph SSE5.8 kmh SSE 4.9 mph7.9 kmh 29.50 in999.0 mb 0.00 in0.0 mm 0.00 in0.0 mm 0.00 in0.0 mm
03:54 PM 83.7°F28.7°C 69.3°F20.7°C 62% 4.5 mph E7.2 kmh E 7.4 mph11.9 kmh 29.50 in999.0 mb 0.00 in0.0 mm 0.00 in0.0 mm 0.00 in0.0 mm
03:59 PM 83.7°F28.7°C 68.9°F20.5°C 61% 3.4 mph SSE5.5 kmh SSE 4.9 mph7.9 kmh 29.50 in999.0 mb 0.00 in0.0 mm 0.00 in0.0 mm 0.00 in0.0 mm
04:04 PM 83.5°F28.6°C 69.1°F20.6°C 62% 0.2 mph NE0.3 kmh NE 2.5 mph4.0 kmh 29.49 in998.6 mb 0.00 in0.0 mm 0.00 in0.0 mm 0.00 in0.0 mm
04:09 PM 83.5°F28.6°C 69.1°F20.6°C 62% 2.7 mph E4.3 kmh E 4.9 mph7.9 kmh 29.50 in999.0 mb 0.00 in0.0 mm 0.00 in0.0 mm 0.00 in0.0 mm
04:14 PM 83.1°F28.4°C 68.7°F20.4°C 62% 3.4 mph E5.5 kmh E 4.9 mph7.9 kmh 29.49 in998.6 mb 0.00 in0.0 mm 0.00 in0.0 mm 0.00 in0.0 mm
04:19 PM 82.9°F28.3°C 69.1°F20.6°C 63% 4.5 mph SE7.2 kmh SE 7.4 mph11.9 kmh 29.49 in998.6 mb 0.00 in0.0 mm 0.00 in0.0 mm 0.00 in0.0 mm
04:24 PM 82.9°F28.3°C 69.6°F20.9°C 64% 6.0 mph SE9.7 kmh SE 7.4 mph11.9 kmh 29.49 in998.6 mb 0.00 in0.0 mm 0.00 in0.0 mm 0.00 in0.0 mm
04:29 PM 82.9°F28.3°C 69.1°F20.6°C 63% 0.9 mph WNW1.4 kmh WNW 2.5 mph4.0 kmh 29.49 in998.6 mb 0.00 in0.0 mm 0.00 in0.0 mm 0.00 in0.0 mm
04:34 PM 82.8°F28.2°C 68.9°F20.5°C 63% Calm Calm -- 29.49 in998.6 mb 0.00 in0.0 mm 0.00 in0.0 mm 0.00 in0.0 mm
04:39 PM 82.8°F28.2°C 68.9°F20.5°C 63% 1.3 mph ESE2.1 kmh ESE 2.5 mph4.0 kmh 29.49 in998.6 mb 0.00 in0.0 mm 0.00 in0.0 mm 0.00 in0.0 mm
04:44 PM 82.6°F28.1°C 69.3°F20.7°C 64% 1.3 mph ENE2.1 kmh ENE 4.9 mph7.9 kmh 29.49 in998.6 mb 0.00 in0.0 mm 0.00 in0.0 mm 0.00 in0.0 mm
04:49 PM 82.6°F28.1°C 68.7°F20.4°C 63% 3.6 mph E5.8 kmh E 4.9 mph7.9 kmh 29.49 in998.6 mb 0.00 in0.0 mm 0.00 in0.0 mm 0.00 in0.0 mm
04:54 PM 82.6°F28.1°C 69.6°F20.9°C 65% 2.0 mph ESE3.2 kmh ESE 4.9 mph7.9 kmh 29.49 in998.6 mb 0.00 in0.0 mm 0.00 in0.0 mm 0.00 in0.0 mm
04:59 PM 82.2°F27.9°C 70.2°F21.2°C 67% 1.1 mph E1.8 kmh E 2.5 mph4.0 kmh 29.49 in998.6 mb 0.00 in0.0 mm 0.00 in0.0 mm 0.00 in0.0 mm
05:04 PM 81.9°F27.7°C 69.8°F21.0°C 67% 0.9 mph SSW1.4 kmh SSW 2.5 mph4.0 kmh 29.48 in998.3 mb 0.00 in0.0 mm 0.00 in0.0 mm 0.00 in0.0 mm
05:09 PM 81.5°F27.5°C 69.6°F20.9°C 67% 2.5 mph NE4.0 kmh NE 4.9 mph7.9 kmh 29.48 in998.3 mb 0.00 in0.0 mm 0.00 in0.0 mm 0.00 in0.0 mm
05:14 PM 81.1°F27.3°C 69.3°F20.7°C 67% 2.9 mph S4.7 kmh S 4.9 mph7.9 kmh 29.48 in998.3 mb 0.00 in0.0 mm 0.00 in0.0 mm 0.00 in0.0 mm
05:19 PM 80.6°F27.0°C 69.1°F20.6°C 68% 4.5 mph SW7.2 kmh SW 7.4 mph11.9 kmh 29.47 in998.0 mb 0.00 in0.0 mm 0.00 in0.0 mm 0.00 in0.0 mm
05:24 PM 80.4°F26.9°C 68.0°F20.0°C 66% 4.5 mph ENE7.2 kmh ENE 7.4 mph11.9 kmh 29.47 in998.0 mb 0.00 in0.0 mm 0.00 in0.0 mm 0.00 in0.0 mm
05:29 PM 80.4°F26.9°C 68.5°F20.3°C 67% 4.9 mph S7.9 kmh S 9.8 mph15.8 kmh 29.47 in998.0 mb 0.00 in0.0 mm 0.00 in0.0 mm 0.00 in0.0 mm
05:34 PM 80.2°F26.8°C 69.3°F20.7°C 69% 2.9 mph E4.7 kmh E 4.9 mph7.9 kmh 29.47 in998.0 mb 0.00 in0.0 mm 0.00 in0.0 mm 0.00 in0.0 mm
05:39 PM 80.2°F26.8°C 69.3°F20.7°C 69% Calm Calm -- 29.47 in998.0 mb 0.00 in0.0 mm 0.00 in0.0 mm 0.00 in0.0 mm
05:44 PM 80.1°F26.7°C 69.1°F20.6°C 69% 2.5 mph SE4.0 kmh SE 4.9 mph7.9 kmh 29.47 in998.0 mb 0.00 in0.0 mm 0.00 in0.0 mm 0.00 in0.0 mm
05:49 PM 79.9°F26.6°C 69.3°F20.7°C 70% Calm Calm -- 29.47 in998.0 mb 0.00 in0.0 mm 0.00 in0.0 mm 0.00 in0.0 mm
05:54 PM 79.5°F26.4°C 68.5°F20.3°C 69% 1.3 mph ESE2.1 kmh ESE 2.5 mph4.0 kmh 29.47 in998.0 mb 0.00 in0.0 mm 0.00 in0.0 mm 0.00 in0.0 mm
05:59 PM 79.3°F26.3°C 68.4°F20.2°C 69% 0.9 mph E1.4 kmh E 2.5 mph4.0 kmh 29.48 in998.3 mb 0.00 in0.0 mm 0.00 in0.0 mm 0.00 in0.0 mm
06:04 PM 79.3°F26.3°C 68.0°F20.0°C 68% 0.2 mph SE0.3 kmh SE 2.5 mph4.0 kmh 29.48 in998.3 mb 0.00 in0.0 mm 0.00 in0.0 mm 0.00 in0.0 mm
06:09 PM 79.3°F26.3°C 68.0°F20.0°C 68% 0.9 mph E1.4 kmh E 2.5 mph4.0 kmh 29.47 in998.0 mb 0.00 in0.0 mm 0.00 in0.0 mm 0.00 in0.0 mm
06:14 PM 79.5°F26.4°C 68.0°F20.0°C 68% 0.9 mph E1.4 kmh E 2.5 mph4.0 kmh 29.47 in998.0 mb 0.00 in0.0 mm 0.00 in0.0 mm 0.00 in0.0 mm
06:19 PM 79.7°F26.5°C 68.2°F20.1°C 68% 0.4 mph S0.6 kmh S 2.5 mph4.0 kmh 29.47 in998.0 mb 0.00 in0.0 mm 0.00 in0.0 mm 0.00 in0.0 mm
06:24 PM 79.9°F26.6°C 68.4°F20.2°C 68% Calm Calm -- 29.47 in998.0 mb 0.00 in0.0 mm 0.00 in0.0 mm 0.00 in0.0 mm
06:29 PM 80.1°F26.7°C 68.5°F20.3°C 68% 1.3 mph ENE2.1 kmh ENE 4.9 mph7.9 kmh 29.47 in998.0 mb 0.00 in0.0 mm 0.00 in0.0 mm 0.00 in0.0 mm
06:34 PM 80.2°F26.8°C 68.7°F20.4°C 68% 0.4 mph SE0.6 kmh SE 2.5 mph4.0 kmh 29.47 in998.0 mb 0.00 in0.0 mm 0.00 in0.0 mm 0.00 in0.0 mm
06:39 PM 80.2°F26.8°C 68.4°F20.2°C 67% Calm Calm -- 29.47 in998.0 mb 0.00 in0.0 mm 0.00 in0.0 mm 0.00 in0.0 mm
06:44 PM 80.2°F26.8°C 68.7°F20.4°C 68% 2.5 mph E4.0 kmh E 4.9 mph7.9 kmh 29.47 in998.0 mb 0.00 in0.0 mm 0.00 in0.0 mm 0.00 in0.0 mm
06:49 PM 80.2°F26.8°C 69.3°F20.7°C 69% 1.1 mph ESE1.8 kmh ESE 2.5 mph4.0 kmh 29.47 in998.0 mb 0.00 in0.0 mm 0.00 in0.0 mm 0.00 in0.0 mm
06:54 PM 80.1°F26.7°C 69.4°F20.8°C 70% 1.3 mph NE2.1 kmh NE 2.5 mph4.0 kmh 29.46 in997.6 mb 0.00 in0.0 mm 0.00 in0.0 mm 0.00 in0.0 mm
06:59 PM 79.7°F26.5°C 69.4°F20.8°C 71% 2.0 mph WSW3.2 kmh WSW 2.5 mph4.0 kmh 29.47 in998.0 mb 0.00 in0.0 mm 0.00 in0.0 mm 0.00 in0.0 mm
07:04 PM 79.3°F26.3°C 69.6°F20.9°C 72% 0.9 mph SE1.4 kmh SE 2.5 mph4.0 kmh 29.45 in997.3 mb 0.00 in0.0 mm 0.00 in0.0 mm 0.00 in0.0 mm
07:09 PM 78.8°F26.0°C 69.1°F20.6°C 72% 1.3 mph SE2.1 kmh SE 2.5 mph4.0 kmh 29.46 in997.6 mb 0.00 in0.0 mm 0.00 in0.0 mm 0.00 in0.0 mm
07:14 PM 78.3°F25.7°C 68.9°F20.5°C 73% 0.9 mph E1.4 kmh E 2.5 mph4.0 kmh 29.46 in997.6 mb 0.00 in0.0 mm 0.00 in0.0 mm 0.00 in0.0 mm
07:19 PM 77.9°F25.5°C 69.1°F20.6°C 74% 0.9 mph E1.4 kmh E 2.5 mph4.0 kmh 29.46 in997.6 mb 0.00 in0.0 mm 0.00 in0.0 mm 0.00 in0.0 mm
07:24 PM 77.4°F25.2°C 68.5°F20.3°C 74% 0.2 mph E0.3 kmh E 2.5 mph4.0 kmh 29.46 in997.6 mb 0.00 in0.0 mm 0.00 in0.0 mm 0.00 in0.0 mm
07:29 PM 77.0°F25.0°C 68.5°F20.3°C 75% 1.1 mph SE1.8 kmh SE 2.5 mph4.0 kmh 29.46 in997.6 mb 0.00 in0.0 mm 0.00 in0.0 mm 0.00 in0.0 mm
07:34 PM 76.6°F24.8°C 68.2°F20.1°C 75% Calm Calm -- 29.46 in997.6 mb 0.00 in0.0 mm 0.00 in0.0 mm 0.00 in0.0 mm
07:39 PM 76.3°F24.6°C 67.8°F19.9°C 75% 1.1 mph S1.8 kmh S 2.5 mph4.0 kmh 29.46 in997.6 mb 0.00 in0.0 mm 0.00 in0.0 mm 0.00 in0.0 mm
07:44 PM 75.9°F24.4°C 67.5°F19.7°C 75% Calm Calm -- 29.46 in997.6 mb 0.00 in0.0 mm 0.00 in0.0 mm 0.00 in0.0 mm
07:49 PM 75.7°F24.3°C 67.6°F19.8°C 76% 0.2 mph E0.3 kmh E 2.5 mph4.0 kmh 29.47 in998.0 mb 0.00 in0.0 mm 0.00 in0.0 mm 0.00 in0.0 mm
07:54 PM 75.4°F24.1°C 67.3°F19.6°C 76% 2.0 mph E3.2 kmh E 4.9 mph7.9 kmh 29.47 in998.0 mb 0.00 in0.0 mm 0.00 in0.0 mm 0.00 in0.0 mm
07:59 PM 75.2°F24.0°C 67.1°F19.5°C 76% 0.2 mph ENE0.3 kmh ENE 2.5 mph4.0 kmh 29.47 in998.0 mb 0.00 in0.0 mm 0.00 in0.0 mm 0.00 in0.0 mm
08:04 PM 75.2°F24.0°C 67.1°F19.5°C 76% 6.7 mph N10.8 kmh N 9.8 mph15.8 kmh 29.47 in998.0 mb 0.00 in0.0 mm 0.00 in0.0 mm 0.00 in0.0 mm
08:09 PM 75.0°F23.9°C 66.9°F19.4°C 76% 1.8 mph ENE2.9 kmh ENE 2.5 mph4.0 kmh 29.47 in998.0 mb 0.00 in0.0 mm 0.00 in0.0 mm 0.00 in0.0 mm
08:14 PM 75.0°F23.9°C 66.9°F19.4°C 76% 3.4 mph ENE5.5 kmh ENE 4.9 mph7.9 kmh 29.47 in998.0 mb 0.00 in0.0 mm 0.00 in0.0 mm 0.00 in0.0 mm
08:19 PM 74.8°F23.8°C 67.3°F19.6°C 77% 2.5 mph SE4.0 kmh SE 4.9 mph7.9 kmh 29.46 in997.6 mb 0.00 in0.0 mm 0.00 in0.0 mm 0.00 in0.0 mm
08:24 PM 74.7°F23.7°C 67.1°F19.5°C 77% 0.2 mph ENE0.3 kmh ENE 2.5 mph4.0 kmh 29.46 in997.6 mb 0.00 in0.0 mm 0.00 in0.0 mm 0.00 in0.0 mm
08:29 PM 74.7°F23.7°C 67.1°F19.5°C 77% 0.2 mph E0.3 kmh E 2.5 mph4.0 kmh 29.45 in997.3 mb 0.00 in0.0 mm 0.00 in0.0 mm 0.00 in0.0 mm
08:34 PM 74.5°F23.6°C 66.9°F19.4°C 77% 0.9 mph E1.4 kmh E 2.5 mph4.0 kmh 29.45 in997.3 mb 0.00 in0.0 mm 0.00 in0.0 mm 0.00 in0.0 mm
08:39 PM 74.5°F23.6°C 67.3°F19.6°C 78% 3.6 mph SE5.8 kmh SE 7.4 mph11.9 kmh 29.45 in997.3 mb 0.00 in0.0 mm 0.00 in0.0 mm 0.00 in0.0 mm
08:44 PM 74.3°F23.5°C 67.1°F19.5°C 78% 3.4 mph ESE5.5 kmh ESE 7.4 mph11.9 kmh 29.44 in997.0 mb 0.00 in0.0 mm 0.00 in0.0 mm 0.00 in0.0 mm
08:49 PM 74.1°F23.4°C 66.9°F19.4°C 78% 4.0 mph ESE6.4 kmh ESE 7.4 mph11.9 kmh 29.44 in997.0 mb 0.00 in0.0 mm 0.00 in0.0 mm 0.00 in0.0 mm
08:54 PM 74.1°F23.4°C 67.3°F19.6°C 79% 0.2 mph ESE0.3 kmh ESE 2.5 mph4.0 kmh 29.44 in997.0 mb 0.00 in0.0 mm 0.00 in0.0 mm 0.00 in0.0 mm
08:59 PM 73.9°F23.3°C 67.1°F19.5°C 79% 1.8 mph ESE2.9 kmh ESE 2.5 mph4.0 kmh 29.45 in997.3 mb 0.00 in0.0 mm 0.00 in0.0 mm 0.00 in0.0 mm
09:04 PM 73.8°F23.2°C 66.9°F19.4°C 79% 5.1 mph SE8.2 kmh SE 7.4 mph11.9 kmh 29.44 in997.0 mb 0.00 in0.0 mm 0.00 in0.0 mm 0.00 in0.0 mm
09:09 PM 73.6°F23.1°C 66.7°F19.3°C 79% 2.9 mph E4.7 kmh E 4.9 mph7.9 kmh 29.44 in997.0 mb 0.00 in0.0 mm 0.00 in0.0 mm 0.00 in0.0 mm
09:14 PM 73.4°F23.0°C 66.6°F19.2°C 79% Calm Calm -- 29.44 in997.0 mb 0.00 in0.0 mm 0.00 in0.0 mm 0.00 in0.0 mm
09:19 PM 73.4°F23.0°C 66.6°F19.2°C 79% 1.3 mph E2.1 kmh E 2.5 mph4.0 kmh 29.44 in997.0 mb 0.00 in0.0 mm 0.00 in0.0 mm 0.00 in0.0 mm
09:24 PM 73.2°F22.9°C 66.4°F19.1°C 79% Calm Calm -- 29.44 in997.0 mb 0.00 in0.0 mm 0.00 in0.0 mm 0.00 in0.0 mm
09:29 PM 73.2°F22.9°C 66.4°F19.1°C 79% 0.2 mph SSE0.3 kmh SSE 2.5 mph4.0 kmh 29.45 in997.3 mb 0.00 in0.0 mm 0.00 in0.0 mm 0.00 in0.0 mm
09:34 PM 73.2°F22.9°C 66.4°F19.1°C 79% 6.5 mph NNW10.5 kmh NNW 9.8 mph15.8 kmh 29.44 in997.0 mb 0.00 in0.0 mm 0.00 in0.0 mm 0.00 in0.0 mm
09:39 PM 73.0°F22.8°C 66.2°F19.0°C 79% 6.5 mph SE10.5 kmh SE 9.8 mph15.8 kmh 29.44 in997.0 mb 0.00 in0.0 mm 0.00 in0.0 mm 0.00 in0.0 mm
09:44 PM 73.0°F22.8°C 66.2°F19.0°C 79% 4.9 mph E7.9 kmh E 7.4 mph11.9 kmh 29.44 in997.0 mb 0.00 in0.0 mm 0.00 in0.0 mm 0.00 in0.0 mm
09:49 PM 73.0°F22.8°C 66.2°F19.0°C 79% 1.3 mph NE2.1 kmh NE 2.5 mph4.0 kmh 29.44 in997.0 mb 0.00 in0.0 mm 0.00 in0.0 mm 0.00 in0.0 mm
09:54 PM 73.0°F22.8°C 66.2°F19.0°C 79% 0.2 mph E0.3 kmh E 2.5 mph4.0 kmh 29.44 in997.0 mb 0.00 in0.0 mm 0.00 in0.0 mm 0.00 in0.0 mm
09:59 PM 73.0°F22.8°C 66.2°F19.0°C 79% 2.0 mph E3.2 kmh E 4.9 mph7.9 kmh 29.43 in996.6 mb 0.00 in0.0 mm 0.00 in0.0 mm 0.00 in0.0 mm
10:04 PM 73.0°F22.8°C 66.2°F19.0°C 79% 6.5 mph SSE10.5 kmh SSE 7.4 mph11.9 kmh 29.44 in997.0 mb 0.00 in0.0 mm 0.00 in0.0 mm 0.00 in0.0 mm
10:09 PM 73.0°F22.8°C 66.6°F19.2°C 80% 1.1 mph ESE1.8 kmh ESE 2.5 mph4.0 kmh 29.44 in997.0 mb 0.00 in0.0 mm 0.00 in0.0 mm 0.00 in0.0 mm
10:14 PM 73.0°F22.8°C 66.6°F19.2°C 80% 0.4 mph E0.6 kmh E 2.5 mph4.0 kmh 29.45 in997.3 mb 0.00 in0.0 mm 0.00 in0.0 mm 0.00 in0.0 mm
10:19 PM 73.0°F22.8°C 66.6°F19.2°C 80% 1.8 mph SE2.9 kmh SE 4.9 mph7.9 kmh 29.45 in997.3 mb 0.00 in0.0 mm 0.00 in0.0 mm 0.00 in0.0 mm
10:24 PM 72.9°F22.7°C 66.4°F19.1°C 80% 1.8 mph E2.9 kmh E 7.4 mph11.9 kmh 29.45 in997.3 mb 0.00 in0.0 mm 0.00 in0.0 mm 0.00 in0.0 mm
10:29 PM 72.9°F22.7°C 66.4°F19.1°C 80% 2.0 mph E3.2 kmh E 2.5 mph4.0 kmh 29.45 in997.3 mb 0.00 in0.0 mm 0.00 in0.0 mm 0.00 in0.0 mm
10:34 PM 72.9°F22.7°C 66.4°F19.1°C 80% 3.6 mph ENE5.8 kmh ENE 4.9 mph7.9 kmh 29.45 in997.3 mb 0.00 in0.0 mm 0.00 in0.0 mm 0.00 in0.0 mm
10:39 PM 72.9°F22.7°C 66.7°F19.3°C 81% 2.5 mph E4.0 kmh E 7.4 mph11.9 kmh 29.45 in997.3 mb 0.00 in0.0 mm 0.00 in0.0 mm 0.00 in0.0 mm
10:44 PM 72.7°F22.6°C 66.6°F19.2°C 81% 5.8 mph SSE9.3 kmh SSE 7.4 mph11.9 kmh 29.46 in997.6 mb 0.00 in0.0 mm 0.00 in0.0 mm 0.00 in0.0 mm
10:49 PM 72.7°F22.6°C 66.6°F19.2°C 81% 6.0 mph SE9.7 kmh SE 9.8 mph15.8 kmh 29.47 in998.0 mb 0.00 in0.0 mm 0.00 in0.0 mm 0.00 in0.0 mm
10:54 PM 72.7°F22.6°C 66.2°F19.0°C 80% 0.9 mph SSE1.4 kmh SSE 2.5 mph4.0 kmh 29.48 in998.3 mb 0.00 in0.0 mm 0.00 in0.0 mm 0.00 in0.0 mm
10:59 PM 72.7°F22.6°C 66.2°F19.0°C 80% 1.3 mph S2.1 kmh S 2.5 mph4.0 kmh 29.48 in998.3 mb 0.00 in0.0 mm 0.00 in0.0 mm 0.00 in0.0 mm
11:04 PM 72.7°F22.6°C 66.6°F19.2°C 81% Calm Calm -- 29.49 in998.6 mb 0.00 in0.0 mm 0.00 in0.0 mm 0.00 in0.0 mm
11:09 PM 72.7°F22.6°C 66.6°F19.2°C 81% Calm Calm -- 29.50 in999.0 mb 0.00 in0.0 mm 0.00 in0.0 mm 0.00 in0.0 mm
11:14 PM 72.7°F22.6°C 66.6°F19.2°C 81% Calm Calm -- 29.51 in999.3 mb 0.00 in0.0 mm 0.00 in0.0 mm 0.00 in0.0 mm
11:19 PM 72.7°F22.6°C 66.6°F19.2°C 81% Calm Calm -- 29.52 in999.7 mb 0.00 in0.0 mm 0.00 in0.0 mm 0.00 in0.0 mm
11:24 PM 72.7°F22.6°C 66.6°F19.2°C 81% Calm Calm -- 29.53 in1000.0 mb 0.00 in0.0 mm 0.00 in0.0 mm 0.00 in0.0 mm
11:29 PM 72.7°F22.6°C 66.2°F19.0°C 80% 0.2 mph E0.3 kmh E 2.5 mph4.0 kmh 29.53 in1000.0 mb 0.00 in0.0 mm 0.00 in0.0 mm 0.00 in0.0 mm
11:34 PM 72.7°F22.6°C 66.6°F19.2°C 81% Calm Calm -- 29.53 in1000.0 mb 0.00 in0.0 mm 0.00 in0.0 mm 0.00 in0.0 mm
11:39 PM 72.7°F22.6°C 66.6°F19.2°C 81% Calm Calm -- 29.52 in999.7 mb 0.07 in1.8 mm 0.84 in21.3 mm 0.01 in0.3 mm
11:44 PM 72.7°F22.6°C 66.6°F19.2°C 81% Calm Calm -- 29.52 in999.7 mb 0.07 in1.8 mm 0.00 in0.0 mm 0.01 in0.3 mm
11:49 PM 72.7°F22.6°C 66.9°F19.4°C 82% Calm Calm -- 29.51 in999.3 mb 0.07 in1.8 mm 0.00 in0.0 mm 0.02 in0.5 mm
11:54 PM 72.7°F22.6°C 67.3°F19.6°C 83% Calm Calm -- 29.50 in999.0 mb 0.02 in0.5 mm 0.00 in0.0 mm 0.04 in1.0 mm